createdAt,value
2018-04-23T00:00:58.437Z,34.57
2018-04-23T00:03:26.788Z,33.13
2018-04-23T00:05:54.385Z,33.67
2018-04-23T00:08:21.953Z,35.63
2018-04-23T00:10:49.615Z,33.53
2018-04-23T00:13:17.208Z,38.08
2018-04-23T00:15:44.826Z,37.50
2018-04-23T00:18:12.426Z,39.20
2018-04-23T00:20:40.008Z,33.00
2018-04-23T00:23:07.654Z,36.93
2018-04-23T00:25:35.249Z,31.17
2018-04-23T00:28:02.822Z,32.90
2018-04-23T00:30:30.415Z,31.67
2018-04-23T00:32:58.020Z,26.70
2018-04-23T00:35:26.385Z,22.83
2018-04-23T00:37:53.982Z,20.07
2018-04-23T00:40:22.371Z,22.03
2018-04-23T00:42:49.971Z,20.97
2018-04-23T00:45:18.352Z,25.40
2018-04-23T00:47:46.700Z,31.90
2018-04-23T00:50:14.295Z,24.63
2018-04-23T00:52:41.947Z,33.50
2018-04-23T00:55:09.573Z,25.17
2018-04-23T00:57:37.173Z,25.13
2018-04-23T01:00:04.799Z,29.83
2018-04-23T01:02:32.381Z,28.07
2018-04-23T01:05:00.037Z,27.60
2018-04-23T01:07:27.630Z,35.80
2018-04-23T01:09:55.199Z,28.67
2018-04-23T01:12:22.809Z,32.93
2018-04-23T01:14:50.388Z,37.43
2018-04-23T01:17:18.001Z,32.17
2018-04-23T01:19:45.644Z,32.13
2018-04-23T01:22:14.032Z,34.70
2018-04-23T01:24:41.647Z,31.63
2018-04-23T01:27:09.445Z,29.53
2018-04-23T01:29:37.004Z,36.90
2018-04-23T01:32:04.631Z,33.28
2018-04-23T01:34:32.194Z,34.60
2018-04-23T01:36:59.785Z,40.47
2018-04-23T01:39:27.408Z,33.30
2018-04-23T01:41:55.038Z,41.78
2018-04-23T01:44:22.641Z,40.73
2018-04-23T01:46:50.221Z,35.90
2018-04-23T01:49:17.808Z,38.35
2018-04-23T01:51:45.403Z,45.50
2018-04-23T01:54:13.034Z,40.53
2018-04-23T01:56:41.412Z,39.58
2018-04-23T01:59:09.813Z,44.17
2018-04-23T02:01:38.174Z,42.67
2018-04-23T02:04:05.733Z,51.33
2018-04-23T02:06:34.096Z,44.58
2018-04-23T02:09:01.712Z,46.28
2018-04-23T02:11:29.330Z,38.80
2018-04-23T02:13:57.715Z,40.97
2018-04-23T02:16:26.069Z,41.90
2018-04-23T02:18:53.685Z,39.70
2018-04-23T02:21:21.323Z,39.55
2018-04-23T02:23:49.704Z,36.65
2018-04-23T02:26:18.070Z,40.45
2018-04-23T02:28:45.716Z,43.33
2018-04-23T02:31:13.306Z,37.97
2018-04-23T02:33:40.945Z,44.60
2018-04-23T02:36:08.604Z,41.30
2018-04-23T02:38:36.242Z,42.55
2018-04-23T02:41:03.859Z,49.53
2018-04-23T02:43:31.455Z,49.45
2018-04-23T02:45:59.104Z,50.55
2018-04-23T02:48:26.700Z,51.67
2018-04-23T02:50:54.316Z,54.17
2018-04-23T02:53:21.902Z,54.28
2018-04-23T02:55:49.490Z,50.20
2018-04-23T02:58:17.109Z,51.95
2018-04-23T03:00:44.698Z,54.13
2018-04-23T03:03:12.341Z,50.53
2018-04-23T03:05:41.108Z,53.75
2018-04-23T03:08:08.785Z,51.85
2018-04-23T03:10:36.412Z,50.42
2018-04-23T03:13:04.030Z,50.60
2018-04-23T03:15:31.651Z,61.72
2018-04-23T03:17:59.315Z,55.63
2018-04-23T03:20:26.901Z,58.15
2018-04-23T03:22:54.535Z,70.28
2018-04-23T03:25:22.123Z,62.42
2018-04-23T03:27:50.471Z,56.35
2018-04-23T03:30:18.085Z,57.25
2018-04-23T03:32:45.684Z,56.40
2018-04-23T03:35:13.428Z,55.45
2018-04-23T03:37:41.812Z,48.20
2018-04-23T03:40:10.164Z,48.92
2018-04-23T03:42:37.764Z,48.40
2018-04-23T03:45:06.139Z,46.70
2018-04-23T03:47:34.516Z,50.53
2018-04-23T03:50:02.853Z,40.20
2018-04-23T03:52:30.451Z,39.42
2018-04-23T03:54:58.881Z,39.75
2018-04-23T03:57:26.510Z,41.40
2018-04-23T03:59:54.448Z,38.53
2018-04-23T04:02:22.074Z,40.90
2018-04-23T04:04:49.665Z,43.97
2018-04-23T04:07:17.277Z,39.78
2018-04-23T04:09:44.905Z,47.78
2018-04-23T04:15:25.910Z,37.30
2018-04-23T04:21:00.628Z,43.65
2018-04-23T04:23:28.295Z,39.63
2018-04-23T04:25:55.918Z,41.15
2018-04-23T04:28:24.331Z,42.83
2018-04-23T04:30:51.980Z,38.88
2018-04-23T04:33:19.661Z,45.12
2018-04-23T04:35:47.284Z,42.20
2018-04-23T04:38:14.947Z,37.08
2018-04-23T04:40:42.602Z,46.22
2018-04-23T04:43:10.188Z,42.83
2018-04-23T04:45:37.784Z,43.72
2018-04-23T04:48:06.155Z,43.45
2018-04-23T04:50:34.575Z,29.55
2018-04-23T04:53:02.208Z,36.83
2018-04-23T04:55:30.532Z,42.95
2018-04-23T04:57:58.169Z,34.97
2018-04-23T05:00:25.765Z,30.95
2018-04-23T05:02:53.358Z,32.10
2018-04-23T05:05:21.084Z,34.28
2018-04-23T05:07:49.539Z,28.60
2018-04-23T05:10:17.153Z,43.25
2018-04-23T05:12:44.751Z,37.50
2018-04-23T05:15:12.356Z,38.53
2018-04-23T05:17:40.010Z,43.50
2018-04-23T05:20:07.611Z,28.62
2018-04-23T05:22:36.054Z,30.62
2018-04-23T05:25:03.689Z,28.85
2018-04-23T05:27:31.409Z,31.23
2018-04-23T05:29:59.019Z,32.88
2018-04-23T05:32:26.680Z,24.95
2018-04-23T05:34:54.379Z,34.85
2018-04-23T05:37:22.010Z,34.22
2018-04-23T05:39:49.758Z,32.20
2018-04-23T05:42:17.420Z,23.92
2018-04-23T05:44:45.165Z,24.50
2018-04-23T05:47:12.930Z,22.63
2018-04-23T05:49:41.301Z,23.62
2018-04-23T05:52:09.718Z,27.50
2018-04-23T05:54:37.361Z,16.83
2018-04-23T05:57:11.204Z,20.40
2018-04-23T05:59:38.883Z,21.90
2018-04-23T06:02:06.489Z,28.30
2018-04-23T06:04:34.096Z,21.33
2018-04-23T06:07:01.740Z,23.42
2018-04-23T06:09:29.379Z,26.55
2018-04-23T06:11:57.020Z,24.48
2018-04-23T06:14:25.417Z,21.47
2018-04-23T06:16:53.016Z,24.58
2018-04-23T06:19:20.622Z,24.30
2018-04-23T06:21:48.306Z,16.15
2018-04-23T06:24:15.921Z,20.80
2018-04-23T06:26:43.561Z,26.00
2018-04-23T06:31:45.043Z,18.37
2018-04-23T06:34:12.688Z,27.40
2018-04-23T06:36:40.286Z,22.20
2018-04-23T06:39:07.890Z,22.67
2018-04-23T06:41:35.609Z,22.17
2018-04-23T06:44:03.255Z,20.17
2018-04-23T06:46:30.905Z,20.20
2018-04-23T06:48:58.669Z,17.35
2018-04-23T06:51:26.298Z,21.40
2018-04-23T06:53:55.265Z,27.25
2018-04-23T06:56:22.891Z,22.42
2018-04-23T06:58:50.580Z,19.30
2018-04-23T07:01:18.201Z,27.92
2018-04-23T07:03:45.773Z,13.17
2018-04-23T07:06:13.415Z,16.97
2018-04-23T07:08:41.011Z,20.93
2018-04-23T07:11:08.770Z,19.40
2018-04-23T07:13:36.399Z,18.23
2018-04-23T07:16:04.009Z,19.85
2018-04-23T07:18:31.612Z,15.33
2018-04-23T07:20:59.341Z,18.12
2018-04-23T07:23:26.943Z,25.13
2018-04-23T07:25:54.629Z,15.63
2018-04-23T07:28:22.298Z,20.17
2018-04-23T07:30:49.955Z,16.50
2018-04-23T07:33:17.561Z,18.93
2018-04-23T07:35:45.180Z,20.70
2018-04-23T07:38:12.792Z,19.73
2018-04-23T07:40:41.205Z,16.57
2018-04-23T07:43:08.810Z,13.62
2018-04-23T07:45:37.158Z,14.75
2018-04-23T07:48:04.741Z,16.73
2018-04-23T07:50:32.375Z,14.07
2018-04-23T07:52:59.980Z,28.40
2018-04-23T07:55:27.578Z,14.33
2018-04-23T07:57:55.336Z,21.20
2018-04-23T08:00:22.915Z,14.30
2018-04-23T08:02:50.549Z,15.03
2018-04-23T08:05:18.139Z,15.30
2018-04-23T08:07:45.771Z,22.70
2018-04-23T08:10:13.589Z,16.97
2018-04-23T08:12:41.186Z,18.83
2018-04-23T08:15:08.833Z,10.27
2018-04-23T08:17:36.446Z,14.80
2018-04-23T08:20:04.029Z,14.33
2018-04-23T08:22:31.611Z,12.83
2018-04-23T08:24:59.190Z,20.73
2018-04-23T08:27:26.773Z,13.90
2018-04-23T08:29:54.373Z,12.30
2018-04-23T08:32:21.929Z,11.63
2018-04-23T08:34:50.302Z,9.03
2018-04-23T08:37:17.872Z,14.57
2018-04-23T08:39:45.451Z,17.63
2018-04-23T08:42:13.019Z,15.00
2018-04-23T08:44:41.521Z,13.87
2018-04-23T08:47:09.120Z,12.53
2018-04-23T08:49:37.252Z,11.80
2018-04-23T08:52:05.638Z,13.23
2018-04-23T08:54:33.264Z,15.53
2018-04-23T08:57:00.904Z,8.27
2018-04-23T08:59:28.599Z,15.93
2018-04-23T09:01:56.968Z,15.53
2018-04-23T09:04:24.577Z,15.50
2018-04-23T09:06:52.151Z,12.60
2018-04-23T09:09:21.047Z,12.40
2018-04-23T09:11:48.841Z,8.77
2018-04-23T09:14:17.252Z,9.93
2018-04-23T09:16:45.610Z,15.97
2018-04-23T09:19:13.264Z,9.93
2018-04-23T09:21:40.866Z,13.00
2018-04-23T09:24:08.474Z,8.33
2018-04-23T09:26:36.202Z,7.10
2018-04-23T09:29:03.783Z,10.10
2018-04-23T09:31:31.431Z,7.73
2018-04-23T09:33:58.990Z,13.50
2018-04-23T09:36:26.609Z,11.40
2018-04-23T09:38:55.003Z,11.80
2018-04-23T09:41:22.562Z,9.13
2018-04-23T09:43:50.134Z,12.30
2018-04-23T09:46:17.726Z,8.47
2018-04-23T09:48:45.348Z,8.80
2018-04-23T09:51:13.004Z,5.37
2018-04-23T09:53:41.450Z,8.90
2018-04-23T09:56:09.082Z,14.63
2018-04-23T09:58:36.790Z,10.73
2018-04-23T10:01:10.695Z,8.87
2018-04-23T10:03:41.873Z,8.50
2018-04-23T10:06:09.499Z,8.80
2018-04-23T10:08:37.124Z,8.43
2018-04-23T10:11:04.787Z,9.60
2018-04-23T10:13:32.408Z,6.83
2018-04-23T10:16:00.763Z,9.07
2018-04-23T10:18:28.522Z,10.10
2018-04-23T10:20:56.239Z,7.97
2018-04-23T10:23:23.843Z,7.73
2018-04-23T10:25:51.440Z,14.30
2018-04-23T10:28:19.847Z,9.47
2018-04-23T10:30:47.447Z,7.03
2018-04-23T10:33:15.070Z,11.33
2018-04-23T10:35:42.645Z,8.17
2018-04-23T10:38:10.243Z,8.20
2018-04-23T10:40:37.885Z,14.30
2018-04-23T10:43:05.478Z,9.50
2018-04-23T10:45:33.988Z,8.90
2018-04-23T10:48:01.728Z,7.83
2018-04-23T10:50:30.356Z,9.50
2018-04-23T10:52:58.157Z,6.73
2018-04-23T10:55:25.797Z,6.67
2018-04-23T10:57:53.451Z,5.50
2018-04-23T11:00:21.083Z,16.43
2018-04-23T11:02:48.771Z,7.60
2018-04-23T11:05:16.377Z,9.30
2018-04-23T11:07:44.753Z,6.53
2018-04-23T11:10:13.386Z,10.37
2018-04-23T11:12:40.971Z,6.57
2018-04-23T11:15:08.601Z,13.47
2018-04-23T11:17:36.248Z,7.90
2018-04-23T11:20:04.407Z,21.90
2018-04-23T11:22:32.783Z,9.30
2018-04-23T11:25:01.177Z,10.53
2018-04-23T11:27:29.027Z,11.13
2018-04-23T11:29:56.634Z,14.87
2018-04-23T11:32:24.285Z,12.43
2018-04-23T11:34:51.848Z,6.50
2018-04-23T11:37:19.486Z,13.97
2018-04-23T11:39:47.074Z,7.80
2018-04-23T11:42:14.713Z,9.17
2018-04-23T11:44:42.298Z,12.17
2018-04-23T11:47:09.935Z,8.70
2018-04-23T11:49:37.555Z,9.67
2018-04-23T11:52:05.180Z,7.53
2018-04-23T11:54:32.831Z,8.67
2018-04-23T11:57:00.445Z,9.53
2018-04-23T11:59:28.658Z,9.83
2018-04-23T12:01:56.311Z,24.47
2018-04-23T12:04:23.941Z,42.40
2018-04-23T12:06:51.569Z,31.23
2018-04-23T12:09:19.982Z,6.03
2018-04-23T12:11:47.670Z,7.80
2018-04-23T12:14:16.048Z,19.13
2018-04-23T12:16:44.458Z,29.77
2018-04-23T12:19:12.054Z,21.33
2018-04-23T12:21:39.726Z,43.30
2018-04-23T12:24:07.354Z,50.57
2018-04-23T12:26:34.939Z,23.50
2018-04-23T12:29:02.578Z,13.33
2018-04-23T12:31:30.169Z,13.60
2018-04-23T12:33:57.805Z,6.20
2018-04-23T12:36:25.402Z,10.97
2018-04-23T12:38:52.988Z,29.90
2018-04-23T12:41:21.365Z,16.30
2018-04-23T12:43:49.711Z,15.43
2018-04-23T12:46:17.337Z,29.00
2018-04-23T12:48:44.933Z,11.00
2018-04-23T12:51:12.525Z,10.00
2018-04-23T12:53:40.172Z,17.23
2018-04-23T12:56:08.538Z,41.67
2018-04-23T12:58:36.112Z,10.70
2018-04-23T13:01:04.495Z,10.07
2018-04-23T13:03:32.925Z,10.60
2018-04-23T13:06:00.498Z,9.97
2018-04-23T13:08:28.112Z,13.70
2018-04-23T13:10:55.749Z,8.30
2018-04-23T13:13:23.332Z,16.70
2018-04-23T13:15:51.728Z,9.77
2018-04-23T13:18:19.473Z,9.93
2018-04-23T13:20:47.871Z,13.60
2018-04-23T13:23:15.454Z,10.50
2018-04-23T13:25:43.895Z,7.93
2018-04-23T13:28:12.229Z,10.07
2018-04-23T13:30:39.845Z,10.03
2018-04-23T13:33:07.468Z,10.30
2018-04-23T13:35:35.062Z,7.63
2018-04-23T13:38:02.664Z,6.70
2018-04-23T13:40:30.276Z,15.40
2018-04-23T13:42:58.759Z,15.17
2018-04-23T13:45:26.356Z,6.13
2018-04-23T13:47:53.934Z,7.47
2018-04-23T13:50:21.555Z,19.40
2018-04-23T13:52:49.156Z,8.63
2018-04-23T13:55:16.805Z,8.37
2018-04-23T13:57:44.366Z,13.50
2018-04-23T14:00:11.971Z,16.27
2018-04-23T14:02:40.486Z,8.87
2018-04-23T14:05:08.103Z,7.47
2018-04-23T14:07:35.732Z,10.20
2018-04-23T14:10:03.311Z,9.73
2018-04-23T14:12:30.971Z,6.90
2018-04-23T14:14:58.611Z,10.00
2018-04-23T14:17:26.239Z,10.40
2018-04-23T14:19:53.944Z,5.73
2018-04-23T14:22:21.610Z,5.50
2018-04-23T14:24:49.221Z,6.87
2018-04-23T14:27:17.694Z,5.10
2018-04-23T14:29:45.332Z,7.67
2018-04-23T14:32:13.917Z,4.13
2018-04-23T14:34:41.610Z,4.47
2018-04-23T14:37:09.220Z,15.83
2018-04-23T14:39:36.903Z,8.67
2018-04-23T14:42:04.517Z,6.43
2018-04-23T14:44:32.106Z,7.20
2018-04-23T14:46:59.695Z,4.73
2018-04-23T14:49:27.571Z,8.20
2018-04-23T14:51:55.950Z,6.40
2018-04-23T14:54:24.323Z,6.17
2018-04-23T14:56:52.061Z,5.83
2018-04-23T14:59:19.722Z,7.20
2018-04-23T15:01:47.378Z,4.03
2018-04-23T15:04:15.146Z,5.13
2018-04-23T15:06:42.740Z,4.77
2018-04-23T15:09:11.311Z,9.03
2018-04-23T15:11:38.913Z,6.87
2018-04-23T15:14:07.619Z,3.77
2018-04-23T15:16:35.213Z,4.80
2018-04-23T15:19:02.860Z,3.47
2018-04-23T15:21:30.466Z,3.80
2018-04-23T15:23:58.142Z,4.63
2018-04-23T15:26:25.916Z,6.70
2018-04-23T15:28:53.956Z,3.40
2018-04-23T15:31:21.588Z,4.07
2018-04-23T15:33:49.182Z,3.33
2018-04-23T15:36:17.139Z,7.40
2018-04-23T15:38:45.538Z,4.17
2018-04-23T15:41:13.894Z,6.13
2018-04-23T15:43:42.264Z,4.33
2018-04-23T15:46:09.885Z,7.80
2018-04-23T15:48:37.483Z,2.90
2018-04-23T15:51:05.053Z,4.00
2018-04-23T15:53:32.711Z,9.00
2018-04-23T15:56:00.416Z,3.10
2018-04-23T15:58:28.043Z,4.23
2018-04-23T16:00:55.629Z,8.70
2018-04-23T16:03:23.252Z,3.37
2018-04-23T16:05:50.835Z,6.47
2018-04-23T16:08:19.213Z,2.77
2018-04-23T16:10:47.674Z,7.23
2018-04-23T16:13:15.275Z,5.13
2018-04-23T16:15:42.878Z,4.93
2018-04-23T16:18:10.511Z,7.17
2018-04-23T16:20:38.122Z,3.50
2018-04-23T16:23:06.505Z,11.77
2018-04-23T16:25:34.114Z,7.50
2018-04-23T16:28:01.726Z,5.23
2018-04-23T16:30:29.334Z,5.13
2018-04-23T16:32:57.074Z,5.60
2018-04-23T16:35:24.782Z,12.07
2018-04-23T16:37:52.370Z,11.23
2018-04-23T16:40:20.751Z,4.63
2018-04-23T16:42:48.425Z,3.70
2018-04-23T16:45:16.046Z,5.20
2018-04-23T16:47:43.764Z,6.57
2018-04-23T16:50:11.407Z,5.10
2018-04-23T16:52:39.132Z,3.67
2018-04-23T16:55:06.731Z,6.47
2018-04-23T16:57:34.463Z,4.53
2018-04-23T17:00:02.850Z,8.33
2018-04-23T17:02:31.342Z,6.93
2018-04-23T17:04:58.976Z,4.10
2018-04-23T17:07:26.560Z,5.43
2018-04-23T17:09:54.229Z,5.57
2018-04-23T17:12:21.869Z,6.30
2018-04-23T17:14:49.474Z,7.37
2018-04-23T17:17:18.010Z,6.07
2018-04-23T17:19:45.594Z,5.57
2018-04-23T17:22:13.981Z,10.00
2018-04-23T17:24:41.613Z,9.30
2018-04-23T17:27:09.309Z,5.63
2018-04-23T17:29:37.701Z,3.13
2018-04-23T17:32:05.379Z,3.47
2018-04-23T17:34:33.068Z,4.93
2018-04-23T17:37:00.698Z,4.90
2018-04-23T17:39:29.689Z,4.57
2018-04-23T17:42:04.491Z,3.20
2018-04-23T17:44:32.207Z,6.27
2018-04-23T17:46:59.788Z,2.73
2018-04-23T17:49:27.410Z,7.73
2018-04-23T17:51:55.037Z,5.83
2018-04-23T17:54:22.631Z,18.40
2018-04-23T17:56:50.234Z,6.00
2018-04-23T17:59:17.847Z,3.50
2018-04-23T18:01:45.443Z,5.67
2018-04-23T18:04:13.114Z,7.30
2018-04-23T18:06:40.682Z,3.70
2018-04-23T18:09:08.325Z,4.83
2018-04-23T18:11:35.923Z,4.03
2018-04-23T18:14:03.571Z,10.03
2018-04-23T18:16:31.150Z,4.50
2018-04-23T18:18:58.786Z,4.40
2018-04-23T18:21:26.350Z,5.43
2018-04-23T18:23:53.980Z,2.87
2018-04-23T18:26:21.589Z,6.20
2018-04-23T18:28:49.173Z,3.40
2018-04-23T18:31:16.825Z,6.15
2018-04-23T18:33:45.184Z,6.97
2018-04-23T18:36:12.799Z,2.47
2018-04-23T18:38:40.474Z,9.27
2018-04-23T18:41:08.107Z,5.22
2018-04-23T18:43:35.723Z,7.50
2018-04-23T18:46:03.361Z,4.40
2018-04-23T18:48:31.004Z,8.02
2018-04-23T18:50:58.686Z,3.90
2018-04-23T18:53:26.310Z,5.00
2018-04-23T18:55:53.921Z,4.15
2018-04-23T18:58:21.555Z,5.12
2018-04-23T19:00:49.174Z,3.83
2018-04-23T19:03:17.532Z,5.30
2018-04-23T19:05:45.214Z,4.97
2018-04-23T19:08:12.783Z,5.07
2018-04-23T19:10:40.431Z,4.60
2018-04-23T19:13:08.043Z,3.35
2018-04-23T19:15:35.680Z,8.32
2018-04-23T19:18:03.246Z,5.35
2018-04-23T19:20:30.865Z,3.83
2018-04-23T19:22:58.482Z,3.85
2018-04-23T19:25:26.052Z,5.30
2018-04-23T19:27:53.669Z,5.22
2018-04-23T19:30:21.451Z,8.50
2018-04-23T19:32:49.068Z,4.30
2018-04-23T19:35:16.721Z,2.60
2018-04-23T19:37:45.431Z,5.35
2018-04-23T19:40:13.091Z,5.43
2018-04-23T19:42:40.751Z,8.93
2018-04-23T19:45:08.365Z,3.55
2018-04-23T19:47:35.976Z,3.87
2018-04-23T19:50:03.682Z,3.45
2018-04-23T19:52:31.289Z,9.07
2018-04-23T19:54:58.879Z,5.12
2018-04-23T19:57:27.261Z,3.45
2018-04-23T19:59:55.635Z,5.32
2018-04-23T20:02:24.018Z,5.10
2018-04-23T20:04:52.376Z,3.75
2018-04-23T20:07:20.205Z,4.37
2018-04-23T20:09:47.823Z,4.15
2018-04-23T20:12:16.243Z,7.85
2018-04-23T20:14:43.880Z,2.78
2018-04-23T20:17:11.465Z,4.62
2018-04-23T20:19:39.071Z,7.62
2018-04-23T20:22:06.779Z,5.53
2018-04-23T20:24:34.434Z,4.87
2018-04-23T20:27:02.039Z,3.62
2018-04-23T20:29:29.665Z,4.32
2018-04-23T20:31:57.343Z,5.00
2018-04-23T20:34:24.991Z,3.45
2018-04-23T20:36:52.622Z,4.15
2018-04-23T20:39:20.996Z,7.30
2018-04-23T20:41:49.410Z,4.37
2018-04-23T20:44:17.089Z,6.60
2018-04-23T20:46:44.700Z,3.47
2018-04-23T20:49:13.072Z,7.40
2018-04-23T20:51:41.409Z,6.37
2018-04-23T20:54:08.982Z,3.15
2018-04-23T20:56:36.566Z,4.95
2018-04-23T20:59:04.147Z,4.15
2018-04-23T21:01:32.493Z,2.80
2018-04-23T21:04:00.094Z,3.15
2018-04-23T21:06:27.726Z,5.57
2018-04-23T21:08:56.071Z,5.65
2018-04-23T21:11:23.728Z,7.45
2018-04-23T21:13:51.363Z,5.35
2018-04-23T21:16:19.023Z,5.12
2018-04-23T21:18:46.883Z,5.22
2018-04-23T21:21:14.504Z,4.43
2018-04-23T21:23:42.104Z,3.33
2018-04-23T21:26:09.715Z,8.20
2018-04-23T21:28:37.307Z,4.05
2018-04-23T21:31:05.768Z,4.25
2018-04-23T21:33:33.346Z,8.93
2018-04-23T21:36:01.598Z,3.28
2018-04-23T21:38:29.983Z,7.43
2018-04-23T21:40:57.549Z,7.47
2018-04-23T21:43:25.287Z,10.48
2018-04-23T21:45:52.880Z,4.95
2018-04-23T21:48:20.513Z,5.05
2018-04-23T21:50:48.106Z,5.62
2018-04-23T21:53:15.712Z,3.55
2018-04-23T21:55:43.575Z,8.02
2018-04-23T21:58:11.193Z,5.70
2018-04-23T22:00:38.789Z,5.50
2018-04-23T22:03:06.377Z,4.57
2018-04-23T22:05:33.996Z,9.85
2018-04-23T22:08:02.342Z,4.30
2018-04-23T22:10:29.909Z,6.80
2018-04-23T22:12:57.572Z,7.95
2018-04-23T22:15:25.141Z,8.10
2018-04-23T22:17:52.743Z,4.72
2018-04-23T22:20:20.344Z,6.75
2018-04-23T22:22:47.923Z,6.45
2018-04-23T22:25:16.271Z,5.35
2018-04-23T22:27:43.877Z,4.32
2018-04-23T22:30:12.237Z,7.87
2018-04-23T22:32:40.582Z,7.68
2018-04-23T22:35:08.211Z,6.12
2018-04-23T22:37:35.773Z,6.47
2018-04-23T22:40:03.378Z,7.80
2018-04-23T22:42:30.966Z,4.75
2018-04-23T22:44:59.315Z,4.40
2018-04-23T22:47:26.893Z,6.35
2018-04-23T22:49:54.552Z,11.77
2018-04-23T22:52:22.149Z,5.18
2018-04-23T22:54:49.754Z,10.38
2018-04-23T22:57:17.366Z,3.58
2018-04-23T22:59:44.956Z,6.82
2018-04-23T23:02:12.522Z,12.20
2018-04-23T23:04:40.744Z,9.98
2018-04-23T23:07:09.117Z,5.43
2018-04-23T23:09:37.504Z,7.10
2018-04-23T23:12:05.849Z,9.68
2018-04-23T23:14:33.448Z,6.80
2018-04-23T23:17:02.680Z,6.70
2018-04-23T23:19:30.335Z,6.70
2018-04-23T23:21:57.937Z,5.65
2018-04-23T23:24:25.495Z,7.95
2018-04-23T23:26:53.121Z,5.82
2018-04-23T23:29:20.692Z,4.55
2018-04-23T23:31:48.284Z,7.78
2018-04-23T23:34:15.890Z,9.65
2018-04-23T23:36:43.470Z,7.60
2018-04-23T23:39:11.028Z,6.70
2018-04-23T23:41:38.596Z,13.65
2018-04-23T23:44:06.224Z,7.18
2018-04-23T23:46:33.810Z,5.03
2018-04-23T23:49:01.392Z,8.55
2018-04-23T23:51:28.953Z,7.28
2018-04-23T23:53:56.545Z,6.78
2018-04-23T23:56:24.123Z,9.80
2018-04-23T23:58:51.994Z,8.50
